Terminal Aerodrome Forecast
Issued by NWS

Home | Current Version | Previous Version | Text Only | Print | Product List | Glossary On
Versions: 1 2 3 4 5 6 7 8 9 10 11 12 13
736
FTUS45 KTFX 262346
TAFBZN
TAF
KBZN 262346Z 2700/2806 25011KT P6SM SCT070 BKN130
     FM270500 23008KT P6SM VCTS SCT070CB BKN100
      TEMPO 2706/2709 VRB15G25KT -TSRA BKN060CB
     FM270900 VRB04KT P6SM SCT060 BKN120
     FM271800 29008KT P6SM VCSH BKN070
      TEMPO 2719/2721 VRB15G25KT -TSRA BKN060CB
     FM272200 27008KT P6SM SCT070 BKN120=

USA.gov is the U.S. government's official web portal to all federal, state and local government web resources and services.